CYWG/YWG METAR and TAF weather

Enter ICAO airport designator
Station Type Date Time Source
CYWG METAR 2022/11/26 08:00 UTC NOAA

CYWG 260800Z 23006KT 15SM SCT160 OVC180 03/M00 A2951 RMK AC4AC4 SLP005


Station Type Date Time Source
CYWG Decoded METAR 2022/11/26 08:00 UTC NOAA

Winnipeg Int. Airportman., Canada (CYWG) 49-54N 097-14W 239M
Nov 26, 2022 - 03:00 AM EST / 2022.11.26 0800 UTC
Wind: from the SW (230 degrees) at 7 MPH (6 KT):0
Visibility: 15 mile(s):0
Sky conditions: overcast
Temperature: 37 F (3 C)
Dew Point: 32 F (0 C)
Relative Humidity: 80%
Pressure (altimeter): 29.51 in. Hg (999 hPa)
ob: CYWG 260800Z 23006KT 15SM SCT160 OVC180 03/M00 A2951 RMK AC4AC4 SLP005
cycle: 8

Station Type Date Time Source
CYWG TAF 2022/11/26 06:42 UTC NOAA

TAF CYWG 260540Z 2606/2706 22010KT P6SM BKN170
BECMG 2606/2608 26012KT
FM261100 32012KT P6SM SCT050 BKN100 OVC200
FM261600 32012G22KT P6SM SCT015 BKN025
TEMPO 2616/2621 BKN015
FM262100 31015KT P6SM BKN015
BECMG 2704/2706 30008KT
RMK NXT FCST BY 261200Z

Example: see airport list